Time;durP1;ratioP1;P1;durP2;ratioP2;P2;SDS_P1;SDS_P2;PMS_P1;PMS_P2;Temp;Humidity;BMP_temperature;BMP_pressure;BME280_temperature;BME280_humidity;BME280_pressure;Samples;Min_cycle;Max_cycle;Signal;HPM_P1;HPM_P2
2023/03/10 00:02:20;;;;;;;7.40;3.30;;;;;;;-1.29;88.41;97875.09;5068377;28;20032;-36
2023/03/10 00:04:50;;;;;;;6.75;2.85;;;;;;;-1.27;87.84;97873.38;5069400;28;20036;-36
2023/03/10 00:07:16;;;;;;;7.13;2.75;;;;;;;-1.28;87.36;97869.13;5068009;28;20466;-35
2023/03/10 00:09:42;;;;;;;6.82;2.55;;;;;;;-1.23;86.71;97880.09;5069915;28;20037;-36
2023/03/10 00:12:08;;;;;;;6.90;2.67;;;;;;;-1.21;86.15;97882.63;5068388;28;20528;-36
2023/03/10 00:14:34;;;;;;;8.23;2.80;;;;;;;-1.19;85.49;97876.63;5050335;28;20528;-35
2023/03/10 00:17:00;;;;;;;4.75;2.53;;;;;;;-1.17;85.14;97880.00;5050761;28;20116;-35
2023/03/10 00:19:26;;;;;;;7.22;3.13;;;;;;;-1.31;84.20;97853.91;5065734;28;20131;-36
2023/03/10 00:21:52;;;;;;;6.75;2.80;;;;;;;-1.11;84.28;97882.44;5058807;28;20131;-36
2023/03/10 00:24:18;;;;;;;4.55;2.78;;;;;;;-1.11;83.73;97879.06;5079402;28;20117;-35
2023/03/10 00:26:46;;;;;;;5.03;2.67;;;;;;;-1.02;83.21;97882.28;5067453;28;20036;-36
2023/03/10 00:29:12;;;;;;;3.65;2.13;;;;;;;-1.01;82.99;97886.50;5066835;28;20048;-36
2023/03/10 00:31:38;;;;;;;6.20;2.30;;;;;;;-1.00;82.44;97892.47;5068220;28;20033;-36
2023/03/10 00:34:06;;;;;;;4.95;2.70;;;;;;;-1.02;81.91;97897.56;5066511;28;20052;-35
2023/03/10 00:36:32;;;;;;;4.88;2.65;;;;;;;-1.01;81.27;97899.25;5083873;28;20516;-36
2023/03/10 00:39:00;;;;;;;3.60;1.83;;;;;;;-1.02;80.63;97889.94;5051468;28;20041;-36
2023/03/10 00:41:31;;;;;;;3.58;2.13;;;;;;;-1.07;80.25;97895.97;5067965;28;20146;-35
2023/03/10 00:43:59;;;;;;;5.38;2.35;;;;;;;-1.15;80.27;97887.63;5050745;28;20048;-35
2023/03/10 00:46:26;;;;;;;4.38;2.25;;;;;;;-1.06;79.77;97890.84;5067511;28;20044;-36
2023/03/10 00:48:52;;;;;;;4.90;2.05;;;;;;;-1.00;79.49;97905.22;5067874;28;20051;-35
2023/03/10 00:51:19;;;;;;;3.33;1.90;;;;;;;-0.99;79.29;97906.88;5069064;28;20536;-35
2023/03/10 00:53:45;;;;;;;4.97;2.60;;;;;;;-1.13;78.50;97891.81;5066959;28;20580;-36
2023/03/10 00:56:21;;;;;;;4.57;2.30;;;;;;;-1.01;78.49;97906.06;5050496;28;20044;-35
2023/03/10 00:58:50;;;;;;;7.70;2.20;;;;;;;-1.02;78.03;97907.78;5066011;28;20541;-36
2023/03/10 01:01:24;;;;;;;4.13;1.98;;;;;;;-1.05;77.82;97907.84;5068757;28;20055;-36
2023/03/10 01:03:53;;;;;;;4.95;1.85;;;;;;;-1.07;77.59;97903.63;5068789;28;20048;-35
2023/03/10 01:06:19;;;;;;;5.63;2.53;;;;;;;-1.10;77.08;97906.22;5065027;28;20040;-35
2023/03/10 01:08:45;;;;;;;2.80;1.60;;;;;;;-1.13;76.64;97908.81;5083055;28;20145;-36
2023/03/10 01:11:22;;;;;;;3.63;2.05;;;;;;;-1.16;76.24;97903.78;5067178;28;20604;-36
2023/03/10 01:13:49;;;;;;;3.22;1.90;;;;;;;-1.18;76.04;97903.78;5066671;28;20044;-35
2023/03/10 01:16:15;;;;;;;5.85;1.80;;;;;;;-1.35;75.69;97881.13;5063449;28;20427;-35
2023/03/10 01:18:42;;;;;;;5.10;1.92;;;;;;;-1.19;75.50;97907.19;5067232;28;20032;-35
2023/03/10 01:21:22;;;;;;;4.55;2.50;;;;;;;-1.19;75.12;97901.25;5066749;28;20059;-36
2023/03/10 01:23:49;;;;;;;3.40;1.73;;;;;;;-1.23;75.21;97900.47;5068449;28;20101;-34
2023/03/10 01:26:16;;;;;;;4.32;2.03;;;;;;;-1.22;75.03;97904.72;5049703;28;20089;-36
2023/03/10 01:28:44;;;;;;;3.80;2.22;;;;;;;-1.25;74.53;97903.91;5048416;28;20055;-35
2023/03/10 01:31:10;;;;;;;3.30;1.80;;;;;;;-1.39;74.38;97881.19;5067225;28;20044;-35
2023/03/10 01:33:41;;;;;;;3.22;1.70;;;;;;;-1.25;74.27;97894.56;5066307;28;20037;-36
2023/03/10 01:36:14;;;;;;;3.78;2.15;;;;;;;-1.25;73.97;97894.56;5062399;28;20048;-35
2023/03/10 01:38:41;;;;;;;3.45;2.20;;;;;;;-1.28;73.60;97897.16;5064797;28;20032;-34
2023/03/10 01:41:08;;;;;;;4.70;2.28;;;;;;;-1.31;73.41;97892.94;5067160;28;20036;-35
2023/03/10 01:43:38;;;;;;;4.93;2.08;;;;;;;-1.34;73.04;97899.81;5066928;28;20032;-36
2023/03/10 01:46:48;;;;;;;4.38;2.22;;;;;;;-1.69;72.56;97853.66;5062561;28;20083;-35
2023/03/10 01:49:39;;;;;;;2.95;1.95;;;;;;;-1.38;72.58;97904.13;5067077;28;20470;-36
2023/03/10 01:52:05;;;;;;;3.83;2.17;;;;;;;-1.37;72.84;97905.81;5049686;28;20098;-36
2023/03/10 01:54:51;;;;;;;3.60;2.22;;;;;;;-1.34;72.34;97907.44;5068241;28;20036;-35
2023/03/10 01:57:21;;;;;;;3.40;2.03;;;;;;;-1.35;72.30;97916.81;5049377;28;20049;-35
2023/03/10 01:59:48;;;;;;;3.25;2.10;;;;;;;-1.35;71.89;97924.44;5082933;28;20036;-36
2023/03/10 02:02:15;;;;;;;3.15;2.10;;;;;;;-1.34;71.91;97923.59;5050207;28;20125;-35
2023/03/10 02:04:43;;;;;;;4.43;2.10;;;;;;;-1.40;71.75;97917.72;5081756;28;20094;-35
2023/03/10 02:07:11;;;;;;;3.78;2.42;;;;;;;-1.39;70.98;97921.97;5066183;28;20513;-35
2023/03/10 02:09:41;;;;;;;3.72;2.10;;;;;;;-1.40;70.74;97925.38;5066939;28;20043;-38
2023/03/10 02:12:08;;;;;;;5.32;1.88;;;;;;;-1.45;70.60;97937.34;5066609;28;20064;-35
2023/03/10 02:14:34;;;;;;;4.22;2.05;;;;;;;-1.60;70.07;97912.09;5083481;28;20531;-35
2023/03/10 02:17:02;;;;;;;4.15;2.00;;;;;;;-1.63;69.73;97919.78;5067356;28;20067;-36
2023/03/10 02:19:53;;;;;;;6.43;2.47;;;;;;;-1.49;69.56;97945.91;5050129;28;20036;-35
2023/03/10 02:22:20;;;;;;;2.78;1.63;;;;;;;-1.50;69.20;97949.31;5067161;28;20041;-35
2023/03/10 02:24:53;;;;;;;2.85;1.70;;;;;;;-1.51;69.00;97953.56;5066590;28;20540;-35
2023/03/10 02:27:36;;;;;;;3.70;2.20;;;;;;;-1.53;68.61;97949.38;5065983;28;20055;-36
2023/03/10 02:30:07;;;;;;;3.92;2.00;;;;;;;-1.53;68.30;97951.91;5066770;28;20044;-36
2023/03/10 02:32:38;;;;;;;4.00;1.73;;;;;;;-1.54;67.88;97955.31;5033350;28;20060;-35
2023/03/10 02:35:05;;;;;;;3.85;1.60;;;;;;;-1.59;67.69;97955.38;5062315;28;20033;-38
2023/03/10 02:37:35;;;;;;;3.35;1.50;;;;;;;-1.65;66.97;97962.28;5062331;28;20044;-34
2023/03/10 02:40:28;;;;;;;2.40;1.60;;;;;;;-1.74;66.50;97961.53;5050200;28;20041;-35
2023/03/10 02:42:55;;;;;;;2.40;1.60;;;;;;;-1.75;66.05;97966.66;5046709;28;20088;-36
2023/03/10 02:45:21;;;;;;;3.03;1.70;;;;;;;-1.78;65.87;97972.59;5049953;28;20057;-35
2023/03/10 02:47:49;;;;;;;3.95;1.83;;;;;;;-1.83;65.70;97968.44;5066133;28;20065;-36
2023/03/10 02:50:17;;;;;;;3.15;1.73;;;;;;;-1.88;65.47;97985.47;5066316;28;20041;-37
2023/03/10 02:52:46;;;;;;;3.03;1.77;;;;;;;-2.11;65.41;97955.22;5066624;28;20044;-36
2023/03/10 02:55:16;;;;;;;;;;;;;;;-1.98;65.13;97981.34;5036505;28;20032;-34
2023/03/10 02:57:42;;;;;;;;;;;;;;;-2.03;65.00;97978.88;5087333;28;21505;-36
2023/03/10 03:00:10;;;;;;;2.45;1.50;;;;;;;-2.08;64.90;97978.09;5069578;28;19920;-39
2023/03/10 03:02:36;;;;;;;6.15;1.98;;;;;;;-2.11;64.56;97972.19;5069052;28;20071;-35
2023/03/10 03:05:03;;;;;;;3.30;2.00;;;;;;;-2.12;64.94;97971.34;5053157;28;20033;-36
2023/03/10 03:07:31;;;;;;;4.18;1.92;;;;;;;-2.13;65.10;97983.22;5052419;28;20048;-37
2023/03/10 03:09:57;;;;;;;1.88;1.40;;;;;;;-2.18;64.94;97979.03;5052458;28;20048;-35
2023/03/10 03:12:23;;;;;;;5.28;2.00;;;;;;;-2.15;64.78;97989.22;5068723;28;20060;-36
2023/03/10 03:14:49;;;;;;;4.47;2.00;;;;;;;-2.19;64.87;97993.47;5052505;28;20486;-35
2023/03/10 03:17:15;;;;;;;4.43;1.75;;;;;;;-2.20;65.07;97996.06;5052373;28;20062;-34
2023/03/10 03:19:41;;;;;;;3.28;1.88;;;;;;;-2.24;64.93;97995.22;5069573;28;20119;-36
2023/03/10 03:22:07;;;;;;;3.90;1.67;;;;;;;-2.25;64.67;97988.44;5065143;28;20132;-36
2023/03/10 03:24:33;;;;;;;4.75;1.70;;;;;;;-2.28;64.62;98000.38;5049439;28;20075;-36
2023/03/10 03:27:01;;;;;;;2.72;1.75;;;;;;;-2.34;64.00;97991.09;5049716;28;20094;-35
2023/03/10 03:29:28;;;;;;;3.20;1.70;;;;;;;-2.34;63.88;97997.88;5049315;28;20079;-36
2023/03/10 03:31:54;;;;;;;3.05;1.77;;;;;;;-2.37;63.55;98006.41;5057525;28;20522;-36
2023/03/10 03:34:24;;;;;;;2.92;2.05;;;;;;;-2.40;63.20;98005.56;5068502;28;20040;-35
2023/03/10 03:36:53;;;;;;;3.20;1.65;;;;;;;-2.45;63.32;98007.31;5076616;28;20142;-36
2023/03/10 03:39:25;;;;;;;4.40;2.03;;;;;;;-2.47;62.83;98003.97;5065961;28;20775;-35
2023/03/10 03:41:56;;;;;;;4.22;1.90;;;;;;;-2.45;62.92;98014.94;5073235;28;20056;-35
2023/03/10 03:44:24;;;;;;;4.13;2.22;;;;;;;-2.48;62.56;98009.91;5065230;28;20041;-35
2023/03/10 03:46:51;;;;;;;2.70;1.40;;;;;;;-2.50;62.51;98014.16;5066053;28;20516;-37
2023/03/10 03:49:18;;;;;;;2.83;1.83;;;;;;;-2.54;62.42;98002.31;5067421;28;20052;-36
2023/03/10 03:51:45;;;;;;;2.42;1.65;;;;;;;-2.57;62.37;98019.31;5069070;28;20500;-36
2023/03/10 03:54:11;;;;;;;3.22;2.00;;;;;;;-2.59;62.20;98015.94;5052343;28;20094;-35
2023/03/10 03:56:39;;;;;;;3.42;1.90;;;;;;;-2.62;61.95;98021.03;5068798;28;20557;-36
2023/03/10 03:59:05;;;;;;;4.45;1.88;;;;;;;-2.60;62.34;98026.13;5030393;28;20043;-35
2023/03/10 04:01:32;;;;;;;3.58;2.03;;;;;;;-2.76;61.96;97994.88;5071035;28;20083;-36
2023/03/10 04:03:59;;;;;;;2.90;1.77;;;;;;;-2.55;62.06;98024.38;5068844;28;20044;-36
2023/03/10 04:06:25;;;;;;;2.72;1.95;;;;;;;-2.59;62.12;98017.63;5068876;28;20032;-35
2023/03/10 04:08:52;;;;;;;2.88;1.90;;;;;;;-2.70;62.19;98004.16;5068118;28;20757;-36
2023/03/10 04:11:20;;;;;;;5.03;2.30;;;;;;;-2.72;62.11;98011.81;5068307;28;20044;-35
2023/03/10 04:13:48;;;;;;;4.53;2.22;;;;;;;-2.73;62.46;98011.84;5062814;28;20048;-37
2023/03/10 04:16:14;;;;;;;4.15;2.08;;;;;;;-2.57;62.16;98042.22;5061174;28;20050;-35
2023/03/10 04:18:41;;;;;;;6.93;2.35;;;;;;;-2.60;62.07;98049.84;5050807;28;20498;-35
2023/03/10 04:21:10;;;;;;;3.87;2.50;;;;;;;-2.61;62.23;98045.63;5051339;28;20427;-35
2023/03/10 04:23:39;;;;;;;4.05;2.10;;;;;;;-2.64;62.09;98043.13;5068568;28;20797;-36
2023/03/10 04:26:08;;;;;;;4.13;1.98;;;;;;;-2.62;62.11;98056.66;5068354;28;20117;-35
2023/03/10 04:28:37;;;;;;;3.42;2.30;;;;;;;-2.60;61.88;98052.41;5051400;28;20500;-36
2023/03/10 04:31:03;;;;;;;3.70;2.13;;;;;;;-2.53;62.01;98065.06;5050836;28;20048;-36
2023/03/10 04:33:32;;;;;;;4.30;2.00;;;;;;;-2.56;61.90;98064.22;5050029;28;20044;-35
2023/03/10 04:36:02;;;;;;;3.05;1.95;;;;;;;-2.67;61.59;98078.72;5069343;28;20044;-36
2023/03/10 04:38:29;;;;;;;4.00;2.03;;;;;;;-2.68;61.91;98076.22;5050467;28;20048;-35
2023/03/10 04:40:57;;;;;;;3.92;2.22;;;;;;;-2.65;61.62;98087.19;5049759;28;20043;-35
2023/03/10 04:43:27;;;;;;;4.65;2.25;;;;;;;-2.64;61.65;98081.25;5050733;28;20131;-35
2023/03/10 04:45:54;;;;;;;4.15;2.17;;;;;;;-2.61;61.48;98090.56;5067392;28;20041;-36
2023/03/10 04:48:22;;;;;;;3.40;1.90;;;;;;;-2.57;61.33;98095.63;5066605;28;20146;-37
2023/03/10 04:51:03;;;;;;;4.80;2.20;;;;;;;-2.57;61.32;98089.69;5084087;28;20139;-37
2023/03/10 04:53:33;;;;;;;5.22;2.25;;;;;;;-2.71;61.44;98064.34;5076642;28;20470;-36
2023/03/10 04:56:00;;;;;;;4.15;3.05;;;;;;;-2.50;61.19;98098.09;5050583;28;20044;-37
2023/03/10 04:58:26;;;;;;;5.55;2.20;;;;;;;-2.50;61.40;98093.00;5065367;28;20123;-35
2023/03/10 05:00:53;;;;;;;6.07;2.90;;;;;;;-2.52;61.02;98097.28;5082981;28;20044;-35
2023/03/10 05:03:19;;;;;;;4.63;2.33;;;;;;;-2.70;61.19;98076.22;5084294;28;20483;-36
2023/03/10 05:05:45;;;;;;;6.20;2.38;;;;;;;-2.70;60.85;98086.38;5068687;28;20416;-34
2023/03/10 05:08:13;;;;;;;4.07;2.35;;;;;;;-2.55;60.89;98103.22;5083431;28;20033;-37
2023/03/10 05:10:40;;;;;;;5.93;2.40;;;;;;;-2.57;61.14;98108.34;5068159;28;20050;-37
2023/03/10 05:13:11;;;;;;;7.30;3.35;;;;;;;-2.57;60.88;98115.97;5049548;28;20044;-37
2023/03/10 05:15:41;;;;;;;4.05;2.05;;;;;;;-2.55;60.89;98121.03;5051208;28;20121;-37
2023/03/10 05:18:08;;;;;;;4.15;2.25;;;;;;;-2.54;60.71;98132.91;5033615;28;20048;-36
2023/03/10 05:20:34;;;;;;;4.00;2.08;;;;;;;-2.68;60.71;98112.66;5064780;28;20037;-37
2023/03/10 05:23:00;;;;;;;4.50;2.42;;;;;;;-2.58;60.68;98139.72;5066785;28;20045;-38
2023/03/10 05:25:27;;;;;;;4.35;2.05;;;;;;;-2.59;60.79;98140.56;5066519;28;20037;-36
2023/03/10 05:27:52;;;;;;;4.75;2.72;;;;;;;-2.58;60.81;98149.06;5050174;28;20040;-37
2023/03/10 05:30:19;;;;;;;3.88;2.03;;;;;;;-2.55;60.99;98146.47;5032389;28;20086;-36
2023/03/10 05:32:49;;;;;;;6.05;2.65;;;;;;;-2.50;60.76;98151.53;5049555;28;20052;-37
2023/03/10 05:35:15;;;;;;;6.93;2.33;;;;;;;-2.42;60.65;98160.81;5049133;28;20128;-36
2023/03/10 05:37:43;;;;;;;3.70;2.15;;;;;;;-2.35;60.51;98156.50;5083798;28;20041;-36
2023/03/10 05:40:13;;;;;;;4.80;2.30;;;;;;;-2.31;59.97;98156.50;5066438;28;20040;-35
2023/03/10 05:42:38;;;;;;;5.13;2.65;;;;;;;-2.26;59.85;98162.38;5050485;28;20040;-36
2023/03/10 05:45:06;;;;;;;5.28;3.00;;;;;;;-2.22;59.74;98153.84;5066293;28;20048;-34
2023/03/10 05:47:32;;;;;;;4.18;2.25;;;;;;;-2.19;59.90;98156.38;5080081;28;20254;-37
2023/03/10 05:50:00;;;;;;;6.82;2.80;;;;;;;-2.23;59.75;98149.63;5049132;28;20042;-35
2023/03/10 05:52:26;;;;;;;6.50;2.63;;;;;;;-2.24;59.75;98142.84;5066635;28;20046;-35
2023/03/10 05:54:52;;;;;;;5.20;2.53;;;;;;;-2.00;59.39;98171.50;5049208;28;20414;-38
2023/03/10 05:57:19;;;;;;;6.93;2.75;;;;;;;-1.93;59.28;98188.38;5066597;28;20127;-36
2023/03/10 05:59:45;;;;;;;4.30;2.15;;;;;;;-1.89;59.09;98180.75;5048342;28;20562;-35
2023/03/10 06:02:11;;;;;;;6.93;2.90;;;;;;;-1.84;58.56;98185.78;5076745;28;20136;-36
2023/03/10 06:04:37;;;;;;;6.00;2.88;;;;;;;-1.78;58.74;98201.00;5052185;28;20581;-35
2023/03/10 06:07:03;;;;;;;4.38;2.38;;;;;;;-1.73;58.53;98200.09;5073113;28;20078;-35
2023/03/10 06:09:31;;;;;;;3.55;1.92;;;;;;;-1.70;58.42;98201.78;5050152;28;20097;-36
2023/03/10 06:11:58;;;;;;;9.07;2.80;;;;;;;-1.65;58.18;98205.13;5068316;28;20139;-36
2023/03/10 06:14:24;;;;;;;4.57;2.35;;;;;;;-1.83;58.16;98180.66;5036708;28;20071;-36
2023/03/10 06:16:53;;;;;;;5.88;2.90;;;;;;;-1.63;58.13;98216.16;5069950;28;20044;-36
2023/03/10 06:19:22;;;;;;;5.95;2.92;;;;;;;-1.66;58.00;98213.63;5071687;28;20520;-36
2023/03/10 06:21:49;;;;;;;5.90;2.92;;;;;;;-1.79;57.70;98223.09;5070381;28;20117;-37
2023/03/10 06:24:15;;;;;;;6.00;2.88;;;;;;;-1.84;58.01;98224.84;5070705;28;20076;-36
2023/03/10 06:26:41;;;;;;;6.13;2.80;;;;;;;-1.72;58.16;98221.31;5073723;28;20137;-35
2023/03/10 06:29:07;;;;;;;5.28;2.53;;;;;;;-1.60;57.92;98222.91;5071751;28;20041;-36
2023/03/10 06:31:33;;;;;;;5.30;3.00;;;;;;;-1.48;57.77;98241.47;5070099;28;20040;-35
2023/03/10 06:33:59;;;;;;;5.22;2.60;;;;;;;-1.59;57.55;98214.41;5071591;28;20040;-36
2023/03/10 06:36:26;;;;;;;4.60;2.38;;;;;;;-1.37;57.12;98238.81;5071330;28;20511;-35
2023/03/10 06:38:53;;;;;;;6.95;3.80;;;;;;;-0.48;56.70;98235.22;5070359;28;20041;-36
2023/03/10 06:41:20;;;;;;;6.72;2.92;;;;;;;1.24;54.63;98239.94;5071616;28;20036;-35
2023/03/10 06:43:46;;;;;;;4.85;2.75;;;;;;;1.51;53.68;98215.47;5070194;28;20037;-38
2023/03/10 06:46:12;;;;;;;6.78;3.00;;;;;;;3.06;51.93;98216.72;5069704;28;20089;-36
2023/03/10 06:48:40;;;;;;;4.85;2.90;;;;;;;4.68;50.26;98243.38;5069779;28;20036;-38
2023/03/10 06:51:13;;;;;;;5.13;3.08;;;;;;;5.10;49.50;98247.91;5069005;28;20177;-37
2023/03/10 06:53:38;;;;;;;6.50;3.00;;;;;;;4.67;49.95;98251.97;5070102;28;20044;-36
2023/03/10 06:56:07;;;;;;;3.03;2.38;;;;;;;4.14;49.43;98251.13;5067631;28;20044;-35
2023/03/10 06:58:34;;;;;;;6.83;3.37;;;;;;;3.46;49.62;98219.81;5066106;28;20071;-35
2023/03/10 07:01:00;;;;;;;6.00;2.75;;;;;;;3.76;49.21;98246.34;5065361;28;20094;-35
2023/03/10 07:03:27;;;;;;;4.82;2.75;;;;;;;3.72;48.67;98258.44;5080781;28;20063;-35
2023/03/10 07:05:59;;;;;;;5.95;2.80;;;;;;;3.85;47.90;98258.94;5071499;28;20097;-35
2023/03/10 07:08:27;;;;;;;4.07;2.67;;;;;;;3.91;47.52;98256.16;5068873;28;20048;-35
2023/03/10 07:10:53;;;;;;;5.15;3.35;;;;;;;4.47;46.99;98269.81;5050375;28;20041;-36
2023/03/10 07:13:20;;;;;;;5.07;2.85;;;;;;;5.38;45.57;98265.81;5070396;28;20041;-36
2023/03/10 07:15:47;;;;;;;6.15;2.85;;;;;;;6.55;43.64;98275.03;5067664;28;20025;-34
2023/03/10 07:18:13;;;;;;;4.38;2.60;;;;;;;7.64;42.74;98274.66;5052668;28;20052;-36
2023/03/10 07:20:40;;;;;;;4.88;3.20;;;;;;;7.48;42.16;98277.09;5068333;28;20040;-36
2023/03/10 07:23:06;;;;;;;3.70;2.40;;;;;;;6.64;42.80;98274.69;5067520;28;20130;-37
2023/03/10 07:25:36;;;;;;;4.53;2.83;;;;;;;6.09;42.37;98278.63;5069274;28;20043;-36
2023/03/10 07:28:03;;;;;;;4.30;2.80;;;;;;;5.88;42.16;98280.28;5068328;28;20052;-37
2023/03/10 07:30:29;;;;;;;5.18;2.78;;;;;;;5.40;42.41;98282.06;5070164;28;20460;-36
2023/03/10 07:32:55;;;;;;;5.95;2.80;;;;;;;4.97;42.51;98278.41;5051759;28;20041;-37
2023/03/10 07:35:21;;;;;;;5.70;3.00;;;;;;;4.54;42.49;98294.47;5067719;28;20028;-34
2023/03/10 07:37:47;;;;;;;6.07;3.08;;;;;;;4.08;42.90;98294.22;5052880;28;20477;-37
2023/03/10 07:40:13;;;;;;;4.63;2.78;;;;;;;3.60;43.13;98299.94;5069207;28;20044;-36
2023/03/10 07:42:40;;;;;;;5.47;3.65;;;;;;;3.34;43.45;98289.53;5069333;28;20409;-36
2023/03/10 07:45:09;;;;;;;7.90;3.75;;;;;;;3.22;43.78;98295.00;5051942;28;20500;-37
2023/03/10 07:47:35;;;;;;;4.68;2.70;;;;;;;2.99;43.99;98299.03;5066845;28;20056;-36
2023/03/10 07:50:01;;;;;;;4.70;2.83;;;;;;;2.79;44.14;98296.13;5052108;28;20074;-37
2023/03/10 07:52:29;;;;;;;5.40;3.28;;;;;;;3.63;43.18;98256.16;5069624;28;20535;-39
2023/03/10 07:54:55;;;;;;;4.30;2.72;;;;;;;4.67;42.37;98302.59;5067811;28;20036;-36
2023/03/10 07:57:21;;;;;;;4.15;2.67;;;;;;;4.61;41.81;98310.53;5069477;28;20048;-37
2023/03/10 07:59:47;;;;;;;5.15;3.03;;;;;;;4.88;41.61;98314.78;5067854;28;20059;-36
2023/03/10 08:02:14;;;;;;;4.20;2.65;;;;;;;4.66;41.63;98316.38;5067719;28;20060;-37
2023/03/10 08:04:40;;;;;;;4.20;2.45;;;;;;;4.15;41.70;98319.69;5066692;28;20048;-37
2023/03/10 08:07:07;;;;;;;4.65;3.05;;;;;;;3.54;42.22;98307.81;5070331;28;20100;-36
2023/03/10 08:09:33;;;;;;;4.97;2.92;;;;;;;2.94;42.70;98311.13;5068581;28;20045;-38
2023/03/10 08:12:00;;;;;;;6.22;3.00;;;;;;;2.51;43.13;98264.38;5051323;28;20048;-37
2023/03/10 08:14:30;;;;;;;5.13;2.65;;;;;;;2.80;43.58;98326.06;5069873;28;20131;-37
2023/03/10 08:16:56;;;;;;;6.57;3.15;;;;;;;2.88;43.50;98325.84;5067270;28;20040;-37
2023/03/10 08:19:23;;;;;;;4.55;2.90;;;;;;;2.88;43.47;98329.25;5066123;28;20051;-39
2023/03/10 08:21:50;;;;;;;6.53;3.30;;;;;;;2.82;43.40;98326.03;5042380;28;20567;-36
2023/03/10 08:24:16;;;;;;;7.28;3.58;;;;;;;2.62;43.76;98329.06;5065606;28;20688;-38
2023/03/10 08:26:42;;;;;;;5.75;3.10;;;;;;;2.36;44.03;98304.03;5068188;28;20044;-37
2023/03/10 08:29:08;;;;;;;6.50;3.78;;;;;;;2.74;43.82;98338.19;5069073;28;20512;-37
2023/03/10 08:31:34;;;;;;;7.38;3.60;;;;;;;3.50;43.12;98311.34;5084309;28;20095;-37
2023/03/10 08:34:01;;;;;;;5.82;3.60;;;;;;;3.66;42.96;98337.47;5029750;28;20124;-37
2023/03/10 08:36:28;;;;;;;6.38;3.03;;;;;;;3.46;43.02;98337.16;5048902;28;20118;-39
2023/03/10 08:38:55;;;;;;;4.68;2.70;;;;;;;3.07;42.88;98333.94;5063786;28;20124;-37
2023/03/10 08:41:27;;;;;;;4.10;2.47;;;;;;;2.71;43.06;98362.22;5069618;28;20056;-39
2023/03/10 08:43:55;;;;;;;4.30;2.80;;;;;;;2.53;43.94;98357.50;5067291;28;20037;-37
2023/03/10 08:46:23;;;;;;;4.28;2.78;;;;;;;2.32;44.17;98358.84;5033661;28;20044;-38
2023/03/10 08:48:49;;;;;;;5.82;2.67;;;;;;;2.31;44.19;98362.28;5050797;28;20040;-37
2023/03/10 08:51:16;;;;;;;6.25;3.40;;;;;;;2.41;44.54;98366.31;5066045;28;20083;-36
2023/03/10 08:53:42;;;;;;;5.90;3.20;;;;;;;2.49;44.56;98366.16;5069285;28;20477;-37
2023/03/10 08:56:08;;;;;;;4.72;2.78;;;;;;;2.60;44.32;98374.44;5067098;28;20040;-37
2023/03/10 08:58:34;;;;;;;3.67;2.88;;;;;;;2.72;44.05;98374.13;5049238;28;20431;-38
2023/03/10 09:01:00;;;;;;;5.93;3.30;;;;;;;2.78;44.51;98379.13;5063831;28;20052;-36
2023/03/10 09:03:26;;;;;;;4.70;2.67;;;;;;;2.62;44.33;98371.84;5067874;28;20048;-37
2023/03/10 09:05:54;;;;;;;5.70;3.25;;;;;;;2.52;44.51;98387.44;5076607;28;20043;-37
2023/03/10 09:08:21;;;;;;;4.43;2.88;;;;;;;2.53;44.91;98388.28;5064865;28;20041;-37
2023/03/10 09:10:47;;;;;;;6.68;3.10;;;;;;;2.43;44.93;98386.81;5066009;28;20049;-38
2023/03/10 09:13:13;;;;;;;6.25;3.05;;;;;;;2.36;44.31;98385.25;5061885;28;20378;-36
2023/03/10 09:15:40;;;;;;;5.70;3.50;;;;;;;2.52;44.01;98379.75;5061335;28;20150;-36
2023/03/10 09:18:11;;;;;;;5.00;2.95;;;;;;;2.51;43.98;98385.75;5048273;28;20568;-38
2023/03/10 09:20:38;;;;;;;5.43;3.15;;;;;;;2.20;44.29;98360.84;5049510;28;20074;-38
2023/03/10 09:23:05;;;;;;;4.50;3.03;;;;;;;2.23;44.62;98383.84;5065589;28;20134;-36
2023/03/10 09:25:31;;;;;;;4.22;2.70;;;;;;;2.00;44.81;98366.38;5063299;28;20044;-37
2023/03/10 09:27:57;;;;;;;5.38;3.20;;;;;;;2.16;45.15;98383.13;5065488;28;20048;-38
2023/03/10 09:30:23;;;;;;;4.10;2.70;;;;;;;2.15;45.12;98385.75;5065118;28;20044;-36
2023/03/10 09:32:49;;;;;;;3.28;2.25;;;;;;;2.05;45.15;98385.06;5065668;28;20043;-36
2023/03/10 09:35:15;;;;;;;5.82;2.88;;;;;;;2.08;44.96;98393.56;5054629;28;20448;-38
2023/03/10 09:37:41;;;;;;;6.38;2.80;;;;;;;2.13;44.84;98390.88;5065585;28;20047;-37
2023/03/10 09:40:09;;;;;;;4.25;2.42;;;;;;;1.81;45.17;98378.75;5066330;28;20492;-36
2023/03/10 09:43:06;;;;;;;4.90;2.47;;;;;;;1.64;45.57;98373.09;5061873;28;20055;-36
2023/03/10 09:45:42;;;;;;;6.32;2.53;;;;;;;1.61;45.10;98401.34;5064287;28;20053;-37
2023/03/10 09:48:35;;;;;;;4.22;2.50;;;;;;;1.47;45.83;98409.28;5066659;28;20070;-38
2023/03/10 09:51:07;;;;;;;4.70;2.85;;;;;;;1.49;46.01;98419.50;5092243;28;20138;-38
2023/03/10 09:54:01;;;;;;;7.28;2.97;;;;;;;1.42;46.13;98412.78;5076424;28;20044;-37
2023/03/10 09:56:31;;;;;;;4.38;2.33;;;;;;;1.30;45.75;98415.59;5086613;28;20042;-37
2023/03/10 09:59:04;;;;;;;5.35;3.50;;;;;;;1.28;45.88;98416.47;5056222;28;20032;-35
2023/03/10 10:01:31;;;;;;;3.60;2.28;;;;;;;1.28;46.33;98416.47;5052577;28;20135;-35
2023/03/10 10:04:11;;;;;;;5.40;2.50;;;;;;;1.17;45.81;98399.59;5062171;28;21341;-36
2023/03/10 10:06:38;;;;;;;6.93;2.25;;;;;;;1.36;46.38;98421.44;5045832;28;20048;-37
2023/03/10 10:09:10;;;;;;;5.03;2.58;;;;;;;1.22;46.54;98390.13;5080758;28;20040;-36
2023/03/10 10:11:36;;;;;;;6.00;2.40;;;;;;;1.43;46.36;98412.78;5066298;28;20064;-35
2023/03/10 10:14:27;;;;;;;4.18;2.33;;;;;;;1.14;46.40;98369.78;5065800;28;20496;-44
2023/03/10 10:17:12;;;;;;;2.63;2.00;;;;;;;1.40;46.43;98417.13;5081714;28;20083;-38
2023/03/10 10:19:39;;;;;;;5.40;3.10;;;;;;;1.42;46.16;98420.47;5065461;28;20048;-37
2023/03/10 10:22:19;;;;;;;3.95;2.25;;;;;;;1.43;46.67;98417.91;5061355;28;20044;-36
2023/03/10 10:24:59;;;;;;;3.55;1.95;;;;;;;1.54;46.54;98427.94;5061896;28;20094;-36
2023/03/10 10:27:25;;;;;;;5.07;2.47;;;;;;;1.49;46.34;98424.63;5060841;28;20446;-46
2023/03/10 10:29:51;;;;;;;2.85;2.03;;;;;;;1.43;46.85;98427.28;5050657;28;20037;-35
2023/03/10 10:32:17;;;;;;;3.83;2.40;;;;;;;1.47;46.79;98434.88;5062499;28;20040;-36
2023/03/10 10:34:45;;;;;;;4.45;2.58;;;;;;;1.54;46.77;98433.06;5062452;28;20349;-36
2023/03/10 10:37:25;;;;;;;4.78;2.78;;;;;;;1.51;46.29;98431.41;5052929;28;20409;-36
2023/03/10 10:39:53;;;;;;;4.35;2.65;;;;;;;1.58;46.26;98432.97;5067851;28;20044;-36
2023/03/10 10:42:23;;;;;;;4.00;2.47;;;;;;;1.61;46.34;98434.66;5048659;28;20397;-39
2023/03/10 10:44:57;;;;;;;4.00;2.53;;;;;;;1.55;46.37;98414.28;5065168;28;20044;-37
2023/03/10 10:47:27;;;;;;;4.50;2.63;;;;;;;1.88;46.56;98435.84;5067447;28;20102;-37
2023/03/10 10:49:54;;;;;;;3.58;2.17;;;;;;;1.91;46.09;98441.75;5049542;28;20040;-36
2023/03/10 10:52:23;;;;;;;4.93;2.60;;;;;;;1.64;46.21;98391.03;5064755;28;20432;-37
2023/03/10 10:54:56;;;;;;;5.35;2.00;;;;;;;1.76;46.12;98441.19;5083002;28;20507;-37
2023/03/10 10:57:32;;;;;;;3.50;2.33;;;;;;;1.52;45.98;98447.59;5066991;28;20052;-38
2023/03/10 11:00:33;;;;;;;4.22;2.58;;;;;;;1.54;46.38;98451.00;5048818;28;20432;-38
2023/03/10 11:02:59;;;;;;;4.38;2.40;;;;;;;1.42;46.02;98439.25;5067985;28;20064;-38
2023/03/10 11:05:37;;;;;;;4.40;2.30;;;;;;;1.57;46.34;98464.56;5083993;28;20130;-36
2023/03/10 11:08:18;;;;;;;3.83;2.42;;;;;;;1.52;46.38;98474.06;5068296;28;20093;-38
2023/03/10 11:10:47;;;;;;;5.22;2.33;;;;;;;1.43;46.15;98470.81;5063314;28;20071;-38
2023/03/10 11:13:23;;;;;;;3.92;2.40;;;;;;;1.40;46.33;98476.00;5067356;28;20620;-41
2023/03/10 11:16:04;;;;;;;4.53;2.50;;;;;;;1.32;46.43;98478.69;5055276;28;20074;-37
2023/03/10 11:18:43;;;;;;;4.65;2.38;;;;;;;1.13;46.73;98460.22;5066783;28;20432;-37
2023/03/10 11:21:13;;;;;;;6.63;2.50;;;;;;;1.38;47.08;98490.53;5069313;28;20077;-38
2023/03/10 11:24:19;;;;;;;4.40;2.55;;;;;;;1.45;46.82;98495.53;5064498;28;20119;-38
2023/03/10 11:26:54;;;;;;;3.95;2.42;;;;;;;1.48;47.00;98494.63;5004671;28;20037;-35
2023/03/10 11:29:29;;;;;;;4.65;2.55;;;;;;;1.48;46.42;98502.31;5041639;28;20045;-37
2023/03/10 11:32:04;;;;;;;4.07;2.35;;;;;;;1.42;46.71;98503.25;5067263;28;20047;-38
2023/03/10 11:34:34;;;;;;;3.80;2.38;;;;;;;1.43;46.48;98502.38;5052009;28;20044;-36
2023/03/10 11:37:23;;;;;;;4.13;2.17;;;;;;;1.48;46.33;98513.41;5046214;28;20056;-38
2023/03/10 11:40:14;;;;;;;4.28;2.13;;;;;;;1.52;46.38;98515.03;5065587;28;20045;-37
2023/03/10 11:42:48;;;;;;;2.67;2.17;;;;;;;1.58;46.12;98519.22;5065496;28;20043;-39
2023/03/10 11:45:29;;;;;;;3.03;1.80;;;;;;;1.64;46.19;98519.94;5060447;28;20589;-37
2023/03/10 11:48:01;;;;;;;3.38;2.00;;;;;;;1.66;45.80;98525.06;5060680;28;20122;-39